Time;durP1;ratioP1;P1;durP2;ratioP2;P2;SDS_P1;SDS_P2;PMS_P1;PMS_P2;Temp;Humidity;BMP_temperature;BMP_pressure;BME280_temperature;BME280_humidity;BME280_pressure;Samples;Min_cycle;Max_cycle;Signal;HPM_P1;HPM_P2
2022/06/25 00:01:57;;;;;;;6.80;2.87;;;;;;;20.50;51.63;99643.58;2118024;84;27774;-62
2022/06/25 00:08:08;;;;;;;4.42;3.40;;;;;;;20.55;51.35;99636.30;1977156;89;31205;-69
2022/06/25 00:14:35;;;;;;;4.80;3.50;;;;;;;20.58;51.33;99630.05;1977397;89;30930;-65
2022/06/25 00:17:37;;;;;;;4.58;4.03;;;;;;;20.60;51.21;99627.16;1977517;89;27734;-68
2022/06/25 00:20:39;;;;;;;7.85;2.95;;;;;;;20.58;51.26;99622.38;1977272;89;29365;-63
2022/06/25 00:23:40;;;;;;;2.58;2.25;;;;;;;20.59;51.47;99622.73;1979713;89;31633;-62
2022/06/25 00:26:42;;;;;;;4.08;3.00;;;;;;;20.55;51.77;99619.97;1981731;89;32779;-61
2022/06/25 00:29:44;;;;;;;3.37;2.75;;;;;;;20.55;51.47;99618.61;1983050;88;30772;-63
2022/06/25 00:32:45;;;;;;;3.50;3.17;;;;;;;20.53;51.51;99621.50;1988049;89;27776;-63
2022/06/25 00:35:46;;;;;;;3.72;3.02;;;;;;;20.53;51.53;99617.42;1987853;89;29124;-63
2022/06/25 00:38:47;;;;;;;3.72;3.40;;;;;;;20.54;51.57;99619.63;1987716;89;31140;-61
2022/06/25 00:41:48;;;;;;;6.10;3.50;;;;;;;20.54;51.52;99615.05;1987856;89;33333;-61
2022/06/25 00:44:52;;;;;;;4.10;3.40;;;;;;;20.54;51.90;99615.54;2037629;84;29649;-63
2022/06/25 00:47:53;;;;;;;6.05;3.67;;;;;;;20.55;51.67;99614.53;2109235;84;27632;-61
2022/06/25 00:51:00;;;;;;;5.42;3.22;;;;;;;20.58;52.04;99614.22;2109156;83;29476;-62
2022/06/25 00:54:06;;;;;;;5.25;3.27;;;;;;;20.59;51.96;99605.05;2123207;83;31312;-65
2022/06/25 00:57:08;;;;;;;4.92;3.80;;;;;;;20.57;52.00;99606.58;2128465;83;33744;-65
2022/06/25 01:00:15;;;;;;;6.20;3.60;;;;;;;20.58;52.04;99615.58;2128470;83;30808;-67
2022/06/25 01:03:17;;;;;;;9.75;3.40;;;;;;;20.59;51.88;99618.16;2128479;83;27695;-61
2022/06/25 01:06:18;;;;;;;3.92;3.33;;;;;;;20.57;51.81;99653.33;2128078;83;29587;-68
2022/06/25 01:09:19;;;;;;;3.67;3.27;;;;;;;20.55;52.04;99655.34;2128461;83;31371;-61
2022/06/25 01:12:20;;;;;;;5.10;3.50;;;;;;;20.51;51.85;99626.77;2128552;83;33769;-61
2022/06/25 01:15:23;;;;;;;3.17;2.90;;;;;;;20.46;52.33;99617.69;2127871;83;29990;-61
2022/06/25 01:18:24;;;;;;;6.08;3.70;;;;;;;20.44;52.19;99631.95;2127872;83;27705;-61
2022/06/25 01:21:27;;;;;;;4.65;3.47;;;;;;;20.43;51.96;99647.95;2127413;83;29891;-60
2022/06/25 01:24:29;;;;;;;5.78;3.90;;;;;;;20.39;52.17;99636.51;2110809;83;31033;-61
2022/06/25 01:27:30;;;;;;;5.50;3.90;;;;;;;20.33;52.31;99624.91;2109092;84;33387;-61
2022/06/25 01:30:32;;;;;;;6.67;3.92;;;;;;;20.30;52.38;99619.78;2120426;83;29643;-61
2022/06/25 01:33:34;;;;;;;9.73;3.75;;;;;;;20.28;52.44;99617.20;2120857;83;27680;-61
2022/06/25 01:36:36;;;;;;;4.50;3.90;;;;;;;20.24;52.35;99622.63;2120541;83;29713;-64
2022/06/25 01:39:38;;;;;;;4.97;4.12;;;;;;;20.22;52.47;99626.48;2120577;83;30956;-62
2022/06/25 01:42:59;;;;;;;7.95;4.30;;;;;;;20.19;52.60;99629.86;2120731;83;33426;-64
2022/06/25 01:46:01;;;;;;;8.75;4.20;;;;;;;20.18;52.88;99615.95;2120558;83;30852;-62
2022/06/25 01:49:03;;;;;;;7.35;4.03;;;;;;;20.17;52.96;99617.44;2120939;83;27703;-62
2022/06/25 01:52:05;;;;;;;4.47;3.72;;;;;;;20.13;52.91;99622.34;2116959;83;29125;-68
2022/06/25 01:55:08;;;;;;;9.20;3.98;;;;;;;20.13;52.99;99622.34;2101759;83;31474;-61
2022/06/25 01:58:13;;;;;;;4.10;3.65;;;;;;;20.14;53.11;99629.50;2101714;83;33747;-61
2022/06/25 02:01:15;;;;;;;9.95;4.40;;;;;;;20.15;53.59;99631.70;2101415;84;30515;-68
2022/06/25 02:04:16;;;;;;;8.10;3.47;;;;;;;20.17;53.36;99650.08;2101600;84;27737;-62
2022/06/25 02:07:18;;;;;;;4.12;3.00;;;;;;;20.17;53.29;99650.08;2101971;83;29098;-61
2022/06/25 02:10:20;;;;;;;8.55;4.40;;;;;;;20.16;53.42;99641.08;2102334;83;32351;-60
2022/06/25 02:13:22;;;;;;;7.37;3.83;;;;;;;20.19;53.69;99638.02;2102246;84;34096;-60
2022/06/25 02:16:23;;;;;;;2.92;2.50;;;;;;;20.19;53.53;99641.27;2101828;84;30092;-61
2022/06/25 02:19:25;;;;;;;5.35;3.90;;;;;;;20.18;53.87;99655.38;2102310;84;28241;-60
2022/06/25 02:22:26;;;;;;;5.33;3.92;;;;;;;20.19;53.69;99655.70;2108129;83;29017;-60
2022/06/25 02:25:28;;;;;;;6.20;4.05;;;;;;;20.20;53.67;99649.77;2121342;83;31629;-60
2022/06/25 02:28:30;;;;;;;2.40;1.65;;;;;;;20.19;53.83;99654.34;2121017;83;34415;-60
2022/06/25 02:31:31;;;;;;;6.65;4.35;;;;;;;20.21;54.00;99661.00;2120925;83;30014;-60
2022/06/25 02:34:33;;;;;;;8.68;3.92;;;;;;;20.21;53.95;99650.61;2120940;83;27671;-60
2022/06/25 02:37:34;;;;;;;4.30;3.90;;;;;;;20.19;53.80;99657.06;2120915;83;29672;-60
2022/06/25 02:40:36;;;;;;;7.67;3.98;;;;;;;20.22;54.00;99659.13;2120980;83;32257;-60
2022/06/25 02:43:38;;;;;;;3.37;2.77;;;;;;;20.22;53.91;99663.20;2120219;83;33803;-61
2022/06/25 02:46:39;;;;;;;4.70;4.30;;;;;;;20.21;54.66;99668.29;2121291;83;29618;-62
2022/06/25 02:49:41;;;;;;;9.58;4.92;;;;;;;20.19;54.21;99682.06;2121092;83;27636;-61
2022/06/25 02:52:43;;;;;;;5.83;4.00;;;;;;;20.18;54.03;99675.78;2111647;83;28492;-60
2022/06/25 02:59:05;;;;;;;5.67;4.17;;;;;;;20.21;54.45;99664.21;2101603;84;34300;-63
2022/06/25 03:02:08;;;;;;;5.80;3.67;;;;;;;20.15;54.54;99662.97;2102469;84;30179;-62
2022/06/25 03:05:10;;;;;;;4.83;3.35;;;;;;;20.09;54.72;99670.41;2102004;84;27708;-64
2022/06/25 03:08:12;;;;;;;6.10;3.98;;;;;;;20.05;54.86;99671.19;2101056;83;30859;-65
2022/06/25 03:11:14;;;;;;;3.83;3.42;;;;;;;20.07;54.65;99664.26;2101413;84;32250;-62
2022/06/25 03:14:17;;;;;;;6.62;4.40;;;;;;;20.03;55.00;99675.44;2101188;84;32538;-64
2022/06/25 03:17:19;;;;;;;8.35;4.80;;;;;;;20.00;54.90;99673.02;2101649;84;29703;-61
2022/06/25 03:20:20;;;;;;;7.65;4.03;;;;;;;20.00;54.95;99672.17;2102273;83;27728;-62
2022/06/25 03:23:22;;;;;;;6.72;4.50;;;;;;;19.99;54.98;99676.75;2114736;83;30724;-62
2022/06/25 03:26:24;;;;;;;6.17;4.08;;;;;;;19.97;55.14;99685.55;2120692;83;32475;-62
2022/06/25 03:29:25;;;;;;;6.37;4.70;;;;;;;19.91;55.37;99679.88;2120615;83;34265;-65
2022/06/25 03:32:26;;;;;;;5.33;4.53;;;;;;;19.87;55.57;99682.89;2120799;83;30049;-67
2022/06/25 03:35:29;;;;;;;8.85;5.72;;;;;;;19.88;55.49;99694.12;2141304;83;27662;-61
2022/06/25 03:38:31;;;;;;;7.20;4.78;;;;;;;19.89;55.39;99692.27;2145716;82;28482;-62
2022/06/25 03:41:32;;;;;;;8.25;4.45;;;;;;;19.92;55.52;99701.48;2140750;82;32250;-61
2022/06/25 03:44:34;;;;;;;4.92;4.12;;;;;;;19.93;55.55;99709.13;2121198;83;33352;-62
2022/06/25 03:47:36;;;;;;;4.58;4.17;;;;;;;19.92;55.39;99715.08;2120195;83;29779;-65
2022/06/25 03:50:37;;;;;;;6.20;4.70;;;;;;;19.92;55.43;99719.16;2121166;83;27671;-61
2022/06/25 03:53:39;;;;;;;7.08;4.03;;;;;;;19.96;55.56;99723.27;2104015;83;28833;-63
2022/06/25 03:56:40;;;;;;;8.08;4.70;;;;;;;19.99;55.64;99728.92;2101916;84;31859;-63
2022/06/25 03:59:42;;;;;;;7.35;3.90;;;;;;;19.97;55.60;99731.77;2102012;84;33116;-62
2022/06/25 04:02:44;;;;;;;4.35;3.85;;;;;;;19.99;55.65;99737.08;2102288;83;29790;-66
2022/06/25 04:05:49;;;;;;;5.47;3.87;;;;;;;20.04;55.77;99744.26;2102145;83;27705;-62
2022/06/25 04:08:51;;;;;;;6.03;4.03;;;;;;;20.07;55.68;99749.40;2101797;84;28723;-62
2022/06/25 04:11:53;;;;;;;7.80;4.50;;;;;;;20.11;55.83;99743.14;2101947;84;31676;-62
2022/06/25 04:14:55;;;;;;;8.18;4.42;;;;;;;20.15;55.82;99746.79;2101269;84;33116;-66
2022/06/25 04:17:57;;;;;;;4.40;3.92;;;;;;;20.18;55.86;99746.98;2101868;84;30864;-61
2022/06/25 04:20:59;;;;;;;4.37;3.70;;;;;;;20.23;55.90;99751.47;2102223;83;27992;-63
2022/06/25 04:24:02;;;;;;;7.20;4.72;;;;;;;20.29;55.87;99747.27;2097801;83;28529;-68
2022/06/25 04:27:05;;;;;;;7.35;4.87;;;;;;;20.34;55.97;99749.05;2120798;83;31467;-62
2022/06/25 04:30:09;;;;;;;5.85;4.47;;;;;;;20.40;55.85;99749.77;2121052;83;33024;-61
2022/06/25 04:33:11;;;;;;;8.15;4.35;;;;;;;20.49;55.86;99746.62;2120831;83;29631;-61
2022/06/25 04:36:16;;;;;;;5.72;4.33;;;;;;;20.58;55.89;99747.08;2121147;83;28010;-61
2022/06/25 04:39:18;;;;;;;11.03;5.00;;;;;;;20.68;55.81;99744.28;2120576;83;28809;-61
2022/06/25 04:42:20;;;;;;;6.30;4.60;;;;;;;20.79;55.70;99748.16;2120925;83;31854;-61
2022/06/25 04:45:23;;;;;;;4.85;4.22;;;;;;;20.95;55.75;99743.86;2120787;83;34182;-61
2022/06/25 04:48:25;;;;;;;9.40;4.75;;;;;;;21.10;55.60;99749.58;2120893;83;29715;-61
2022/06/25 04:51:28;;;;;;;9.88;4.95;;;;;;;21.18;55.39;99748.29;2116425;83;27691;-61
2022/06/25 04:54:30;;;;;;;5.55;4.80;;;;;;;21.34;55.40;99750.78;2102184;83;28112;-61
2022/06/25 04:57:32;;;;;;;6.03;3.90;;;;;;;21.51;55.29;99758.05;2102269;83;31499;-61
2022/06/25 05:00:34;;;;;;;8.00;5.62;;;;;;;21.69;55.09;99750.34;2101968;83;33458;-66
2022/06/25 05:03:36;;;;;;;8.45;5.10;;;;;;;21.87;54.85;99749.41;2101911;84;30909;-62
2022/06/25 05:06:38;;;;;;;9.15;4.87;;;;;;;22.05;54.64;99747.94;2102515;83;27483;-63
2022/06/25 05:09:40;;;;;;;5.78;4.92;;;;;;;22.15;54.31;99764.52;2093895;83;28735;-62
2022/06/25 05:16:03;;;;;;;6.20;4.42;;;;;;;22.19;54.18;99765.04;2120932;83;34373;-64
2022/06/25 05:19:05;;;;;;;5.92;4.95;;;;;;;22.19;54.17;99771.02;2120958;83;29761;-61
2022/06/25 05:22:07;;;;;;;5.35;4.67;;;;;;;22.21;54.06;99771.71;2115584;83;27708;-62
2022/06/25 05:25:09;;;;;;;8.75;4.87;;;;;;;22.24;53.79;99770.02;2120549;83;28691;-68
2022/06/25 05:28:11;;;;;;;6.78;4.85;;;;;;;22.24;53.60;99785.03;2120974;83;31031;-61
2022/06/25 05:31:13;;;;;;;10.85;5.08;;;;;;;22.28;53.55;99786.39;2120881;83;33795;-61
2022/06/25 05:34:15;;;;;;;9.78;5.00;;;;;;;22.36;53.49;99786.43;2121063;83;30065;-61
2022/06/25 05:37:17;;;;;;;6.10;4.90;;;;;;;22.43;53.36;99780.67;2123835;83;27738;-61
2022/06/25 05:40:20;;;;;;;6.80;4.72;;;;;;;22.51;53.28;99789.39;2146314;83;29393;-67
2022/06/25 05:43:22;;;;;;;9.60;5.37;;;;;;;22.52;53.08;99793.83;2120600;83;32361;-61
2022/06/25 05:46:25;;;;;;;8.63;4.97;;;;;;;22.58;52.98;99789.60;2145141;83;34227;-67
2022/06/25 05:49:27;;;;;;;4.83;3.98;;;;;;;22.67;52.97;99785.02;2146269;82;30808;-62
2022/06/25 05:52:29;;;;;;;4.37;3.00;;;;;;;22.71;52.83;99801.38;2116843;82;27664;-64
2022/06/25 05:55:32;;;;;;;5.17;3.27;;;;;;;22.74;52.69;99808.75;2101953;84;29492;-61
2022/06/25 05:58:34;;;;;;;7.30;4.47;;;;;;;22.73;52.67;99804.80;2101975;84;31919;-61
2022/06/25 06:01:37;;;;;;;6.03;4.95;;;;;;;22.74;52.71;99816.06;2101927;84;34086;-63
2022/06/25 06:04:39;;;;;;;10.82;5.45;;;;;;;22.70;52.86;99813.32;2102137;84;30452;-62
2022/06/25 06:07:42;;;;;;;5.87;4.50;;;;;;;22.69;53.36;99813.84;2102054;84;27697;-62
2022/06/25 06:10:43;;;;;;;5.65;4.00;;;;;;;22.73;53.78;99808.89;2102208;84;28673;-61
2022/06/25 06:13:46;;;;;;;9.38;5.67;;;;;;;22.80;53.90;99806.34;2101934;84;31013;-61
2022/06/25 06:16:49;;;;;;;5.87;5.12;;;;;;;22.86;54.22;99803.80;2101797;84;34131;-62
2022/06/25 06:19:52;;;;;;;7.83;5.47;;;;;;;22.94;54.65;99801.58;2102147;83;29643;-62
2022/06/25 06:22:54;;;;;;;8.95;5.92;;;;;;;23.05;54.95;99801.27;2116956;83;27671;-65
2022/06/25 06:25:56;;;;;;;8.58;5.03;;;;;;;23.18;54.98;99805.36;2121096;83;29172;-62
2022/06/25 06:28:58;;;;;;;7.72;5.30;;;;;;;23.30;55.08;99804.02;2120942;83;31221;-62
2022/06/25 06:31:59;;;;;;;8.30;5.58;;;;;;;23.43;54.72;99803.50;2121138;83;33375;-61
2022/06/25 06:35:00;;;;;;;6.50;5.12;;;;;;;23.74;55.10;99798.66;2121238;83;30526;-61
2022/06/25 06:38:01;;;;;;;7.12;5.17;;;;;;;24.31;55.25;99801.40;2121661;83;27599;-62
2022/06/25 06:41:02;;;;;;;6.25;5.05;;;;;;;24.91;54.74;99798.51;2121195;83;29806;-61
2022/06/25 06:44:04;;;;;;;5.33;3.92;;;;;;;25.57;54.61;99804.83;2121145;83;31140;-63
2022/06/25 06:47:06;;;;;;;7.92;3.87;;;;;;;26.38;53.65;99804.10;2121286;83;32961;-63
2022/06/25 06:50:10;;;;;;;7.20;3.50;;;;;;;27.30;51.99;99795.36;2121322;83;30821;-62
2022/06/25 06:53:11;;;;;;;3.70;3.37;;;;;;;27.86;50.96;99797.27;2121157;83;27675;-62
2022/06/25 06:56:12;;;;;;;5.75;3.77;;;;;;;28.11;49.92;99793.20;2120815;83;29116;-61
2022/06/25 06:59:14;;;;;;;6.12;3.72;;;;;;;28.27;48.89;99801.13;2121052;83;31912;-64
2022/06/25 07:02:15;;;;;;;2.70;2.47;;;;;;;28.55;49.12;99800.16;2121106;83;33368;-66
2022/06/25 07:05:16;;;;;;;4.00;2.25;;;;;;;29.36;48.38;99798.97;2121285;83;29591;-65
2022/06/25 07:08:18;;;;;;;4.65;2.95;;;;;;;30.30;46.42;99804.33;2120908;83;27678;-65
2022/06/25 07:11:28;;;;;;;5.67;2.85;;;;;;;31.19;45.29;99805.06;2120456;83;29048;-63
2022/06/25 07:14:29;;;;;;;5.60;3.12;;;;;;;31.95;44.69;99807.25;2121174;83;31076;-63
2022/06/25 07:17:30;;;;;;;7.37;3.80;;;;;;;32.60;42.65;99811.12;2121203;83;33924;-65
2022/06/25 07:20:31;;;;;;;6.47;2.85;;;;;;;33.14;41.23;99807.88;2119042;83;29996;-63
2022/06/25 07:23:33;;;;;;;5.37;2.60;;;;;;;33.78;40.88;99814.17;2102600;83;27718;-62
2022/06/25 07:26:35;;;;;;;1.85;1.70;;;;;;;34.32;40.20;99812.34;2102049;83;28649;-62
2022/06/25 07:29:36;;;;;;;4.75;2.50;;;;;;;34.91;39.16;99804.31;2102087;83;31826;-61
2022/06/25 07:32:38;;;;;;;3.62;3.00;;;;;;;35.43;37.77;99797.17;2104579;83;34221;-62
2022/06/25 07:35:39;;;;;;;4.22;2.37;;;;;;;35.75;36.43;99794.33;2108558;83;30791;-62
2022/06/25 07:38:40;;;;;;;1.80;1.70;;;;;;;35.79;35.35;99796.07;2109170;83;27604;-64
2022/06/25 07:41:41;;;;;;;3.92;2.90;;;;;;;35.98;34.91;99796.64;2109371;84;28702;-61
2022/06/25 07:44:43;;;;;;;4.10;2.60;;;;;;;36.42;34.58;99803.61;2108903;84;31110;-76
2022/06/25 07:47:44;;;;;;;6.62;2.90;;;;;;;36.80;33.51;99801.01;2114994;83;34045;-70
2022/06/25 07:54:05;;;;;;;4.92;2.90;;;;;;;37.46;32.55;99808.90;2117298;83;27784;-72
2022/06/25 07:57:06;;;;;;;3.02;2.45;;;;;;;37.73;32.22;99810.78;2109339;84;28697;-70
2022/06/25 08:00:10;;;;;;;3.42;2.62;;;;;;;37.97;30.45;99812.64;2109363;84;31010;-70
2022/06/25 08:03:12;;;;;;;3.40;3.05;;;;;;;37.93;30.29;99815.69;2108963;83;33138;-68
2022/06/25 08:06:15;;;;;;;4.20;2.47;;;;;;;37.97;30.81;99823.25;2119439;83;29598;-71
2022/06/25 08:09:16;;;;;;;6.40;2.87;;;;;;;37.97;30.16;99831.64;2130942;82;27584;-68
2022/06/25 08:12:17;;;;;;;4.12;2.67;;;;;;;37.33;28.55;99824.13;2153368;82;28650;-72
2022/06/25 08:15:20;;;;;;;3.10;2.37;;;;;;;37.30;29.91;99835.86;2153096;82;31119;-70
2022/06/25 08:18:21;;;;;;;4.67;2.87;;;;;;;37.42;29.42;99847.72;2152981;82;33841;-69
2022/06/25 08:21:22;;;;;;;4.10;2.95;;;;;;;37.20;29.58;99838.83;2152711;82;29683;-74
2022/06/25 08:24:24;;;;;;;6.03;2.80;;;;;;;37.02;29.08;99840.06;2153191;82;27670;-76
2022/06/25 08:27:25;;;;;;;4.67;2.92;;;;;;;37.00;29.53;99840.02;2152541;82;28679;-71
2022/06/25 08:30:28;;;;;;;7.00;2.95;;;;;;;37.29;29.53;99843.95;2152967;82;31816;-69
2022/06/25 08:33:29;;;;;;;4.58;2.65;;;;;;;37.50;29.35;99840.80;2109585;82;32946;-72
2022/06/25 08:36:30;;;;;;;2.62;2.35;;;;;;;37.50;28.61;99841.63;2088724;83;29783;-67
2022/06/25 08:39:31;;;;;;;4.95;2.65;;;;;;;37.45;29.13;99843.00;2137861;83;27713;-72
2022/06/25 08:42:33;;;;;;;3.10;2.60;;;;;;;37.54;28.82;99834.97;2129380;83;28719;-71
2022/06/25 08:45:35;;;;;;;2.72;2.45;;;;;;;37.60;29.25;99840.03;2120781;83;31035;-72
2022/06/25 08:48:37;;;;;;;3.52;2.72;;;;;;;37.78;29.18;99841.02;2120306;83;32966;-73
2022/06/25 08:51:39;;;;;;;5.35;2.90;;;;;;;37.88;28.84;99837.44;2120884;83;29681;-75
2022/06/25 08:54:41;;;;;;;4.42;2.70;;;;;;;37.74;27.95;99833.41;2120753;83;27655;-67
2022/06/25 08:57:42;;;;;;;3.17;2.58;;;;;;;37.36;28.59;99837.03;2120223;83;28657;-71
2022/06/25 09:00:45;;;;;;;4.83;2.60;;;;;;;37.30;28.33;99840.05;2121795;83;32011;-71
2022/06/25 09:03:47;;;;;;;4.37;3.08;;;;;;;36.89;28.67;99837.11;2124265;83;32978;-70
2022/06/25 09:06:50;;;;;;;3.80;2.90;;;;;;;36.90;28.98;99841.58;2124060;83;29604;-70
2022/06/25 09:09:52;;;;;;;5.95;3.00;;;;;;;36.69;28.17;99829.89;2124174;83;27669;-70
2022/06/25 09:12:58;;;;;;;4.33;3.45;;;;;;;36.37;28.17;99825.88;2124171;83;28697;-72
2022/06/25 09:15:59;;;;;;;4.65;3.25;;;;;;;36.10;28.66;99828.59;2124171;83;31012;-70
2022/06/25 09:19:00;;;;;;;3.17;2.67;;;;;;;36.07;29.19;99827.70;2124124;83;33041;-72
2022/06/25 09:22:06;;;;;;;5.50;3.25;;;;;;;35.86;28.93;99834.34;2123716;83;30658;-74
2022/06/25 09:25:08;;;;;;;3.65;2.85;;;;;;;35.70;29.07;99827.71;2123763;83;27607;-72
2022/06/25 09:28:11;;;;;;;4.97;3.95;;;;;;;35.65;29.26;99830.41;2124075;83;29447;-72
2022/06/25 09:31:13;;;;;;;4.20;3.23;;;;;;;35.51;29.15;99827.11;2075114;83;31043;-70
2022/06/25 09:34:14;;;;;;;4.30;3.00;;;;;;;35.29;29.28;99830.08;2132135;81;33006;-72
2022/06/25 09:37:27;;;;;;;4.90;2.80;;;;;;;35.19;29.34;99830.45;2140851;83;29667;-70
2022/06/25 09:40:29;;;;;;;4.50;2.92;;;;;;;35.17;29.98;99824.28;2140989;83;27743;-74
2022/06/25 09:43:37;;;;;;;4.33;3.08;;;;;;;35.23;29.77;99830.25;2133852;82;28644;-74
2022/06/25 09:46:56;;;;;;;3.12;2.83;;;;;;;35.34;30.04;99822.92;2132212;83;31697;-76
2022/06/25 09:50:13;;;;;;;6.83;3.02;;;;;;;35.26;29.79;99833.92;2132239;83;32963;-72
2022/06/25 09:53:16;;;;;;;3.72;2.52;;;;;;;35.25;30.30;99841.98;2132099;83;29649;-74
2022/06/25 09:56:27;;;;;;;4.57;3.20;;;;;;;35.20;29.70;99841.35;2070924;83;27896;-72
2022/06/25 09:59:32;;;;;;;6.00;3.05;;;;;;;34.94;29.40;99829.73;2132358;83;28652;-73
2022/06/25 10:02:34;;;;;;;4.17;2.83;;;;;;;34.72;29.17;99834.30;2132178;83;31912;-74
2022/06/25 10:05:40;;;;;;;4.28;3.17;;;;;;;34.36;29.75;99836.62;2132356;83;32937;-71
2022/06/25 10:08:51;;;;;;;5.50;3.22;;;;;;;34.04;30.08;99834.27;2132170;83;29631;-71
2022/06/25 10:11:53;;;;;;;4.58;3.30;;;;;;;33.92;30.56;99838.44;2131280;83;27692;-71
2022/06/25 10:14:54;;;;;;;7.40;3.58;;;;;;;33.91;30.82;99833.97;2132140;83;29453;-70
2022/06/25 10:18:03;;;;;;;5.35;3.20;;;;;;;33.90;30.95;99837.00;2132636;82;31018;-73
2022/06/25 10:21:04;;;;;;;6.20;3.00;;;;;;;33.90;30.83;99832.27;2131968;83;33052;-70
2022/06/25 10:24:06;;;;;;;6.17;3.25;;;;;;;33.83;31.16;99827.89;2131999;83;29775;-68
2022/06/25 10:27:07;;;;;;;7.17;3.47;;;;;;;33.82;31.32;99834.01;2132021;83;27709;-75
2022/06/25 10:30:11;;;;;;;4.62;3.80;;;;;;;33.70;30.94;99836.78;2132066;83;29665;-70
2022/06/25 10:33:15;;;;;;;4.75;4.10;;;;;;;33.36;30.33;99839.80;2129664;82;31831;-72
2022/06/25 10:36:17;;;;;;;8.75;4.40;;;;;;;32.90;30.86;99833.33;2119129;84;33829;-70
2022/06/25 10:39:33;;;;;;;3.67;3.33;;;;;;;32.71;31.21;99831.11;2118918;84;30537;-70
2022/06/25 10:45:57;;;;;;;5.10;3.92;;;;;;;32.40;32.01;99833.02;2134570;82;29685;-70
2022/06/25 10:49:12;;;;;;;5.05;4.10;;;;;;;32.35;32.22;99832.85;2149255;82;31891;-70
2022/06/25 10:52:16;;;;;;;5.35;3.72;;;;;;;32.30;32.00;99831.30;2148378;82;33790;-69
2022/06/25 10:55:17;;;;;;;5.03;3.22;;;;;;;32.18;32.23;99828.45;2172099;80;29730;-67
2022/06/25 10:58:21;;;;;;;6.30;4.05;;;;;;;32.11;32.82;99825.73;2124538;82;27645;-72
2022/06/25 11:01:27;;;;;;;7.85;4.22;;;;;;;32.06;32.59;99826.98;2145299;82;28649;-69
2022/06/25 11:04:30;;;;;;;6.03;4.50;;;;;;;31.85;32.70;99822.73;2111970;84;31846;-69
2022/06/25 11:07:32;;;;;;;4.20;3.77;;;;;;;31.80;32.88;99823.39;2112417;84;32979;-71
2022/06/25 11:10:35;;;;;;;4.28;3.87;;;;;;;31.81;33.16;99820.94;2111878;84;29823;-69
2022/06/25 11:13:42;;;;;;;5.78;4.35;;;;;;;31.89;33.27;99821.17;2112495;84;27667;-69
2022/06/25 11:16:44;;;;;;;6.22;3.92;;;;;;;32.05;33.58;99827.50;2111945;84;28712;-69
2022/06/25 11:19:45;;;;;;;5.17;4.55;;;;;;;32.20;33.59;99827.13;2111370;84;31033;-69
2022/06/25 11:22:50;;;;;;;11.70;4.12;;;;;;;32.38;33.32;99823.52;2112186;84;33893;-67
2022/06/25 11:29:30;;;;;;;5.37;3.95;;;;;;;32.48;33.31;99824.36;2112135;84;27743;-74
2022/06/25 11:32:31;;;;;;;5.47;3.92;;;;;;;32.53;33.02;99820.36;2111297;84;28676;-71
2022/06/25 11:35:44;;;;;;;6.83;3.85;;;;;;;32.55;33.09;99816.81;2111817;84;31904;-72
2022/06/25 11:38:54;;;;;;;4.08;3.67;;;;;;;32.56;32.97;99821.28;2112102;84;33003;-74
2022/06/25 11:41:56;;;;;;;5.40;4.47;;;;;;;32.56;32.61;99827.35;2111549;84;29643;-72
2022/06/25 11:44:57;;;;;;;7.05;3.87;;;;;;;32.37;31.96;99819.61;2110990;83;27675;-70
2022/06/25 11:47:58;;;;;;;5.75;3.58;;;;;;;32.31;32.07;99821.91;2108652;84;29469;-69
2022/06/25 11:51:01;;;;;;;6.53;4.10;;;;;;;32.22;32.22;99822.20;2115406;83;31049;-74
2022/06/25 11:54:06;;;;;;;4.78;3.80;;;;;;;32.25;32.10;99820.89;2127747;83;33009;-75
2022/06/25 11:57:21;;;;;;;4.75;3.75;;;;;;;32.22;32.07;99823.59;2127712;83;30420;-72
2022/06/25 12:00:23;;;;;;;6.22;3.95;;;;;;;32.24;32.25;99823.34;2127747;83;27717;-70
2022/06/25 12:03:26;;;;;;;3.90;3.50;;;;;;;32.35;32.07;99817.60;2119245;83;28629;-72
2022/06/25 12:06:28;;;;;;;4.03;3.63;;;;;;;32.38;31.79;99817.14;2108075;84;31068;-69
2022/06/25 12:09:29;;;;;;;4.65;4.12;;;;;;;32.33;31.93;99820.63;2108530;84;33735;-71
2022/06/25 12:12:30;;;;;;;6.12;3.70;;;;;;;32.23;32.14;99816.97;2108297;84;29636;-72
2022/06/25 12:15:31;;;;;;;4.28;3.85;;;;;;;32.29;32.51;99819.39;2108492;84;27632;-72
2022/06/25 12:18:39;;;;;;;5.87;4.12;;;;;;;32.33;32.33;99815.60;2108297;84;28650;-72
2022/06/25 12:21:40;;;;;;;8.98;4.53;;;;;;;32.38;32.02;99820.75;2108369;84;31208;-70
2022/06/25 12:24:46;;;;;;;6.58;3.80;;;;;;;32.45;32.25;99808.19;2108365;84;32956;-66
2022/06/25 12:27:50;;;;;;;4.72;3.15;;;;;;;32.62;32.26;99810.31;2111141;84;30468;-76
2022/06/25 12:30:51;;;;;;;;;;;;;;;32.67;32.00;99807.17;2091810;83;27643;-73
2022/06/25 12:33:52;;;;;;;5.60;3.80;;;;;;;32.69;31.42;99811.08;2110237;83;27687;-72
2022/06/25 12:36:55;;;;;;;4.62;3.98;;;;;;;32.52;31.61;99810.34;2110508;83;31063;-72
2022/06/25 12:39:58;;;;;;;6.30;3.45;;;;;;;32.55;31.84;99814.56;2114385;83;32907;-70
2022/06/25 12:43:01;;;;;;;5.75;3.37;;;;;;;32.52;31.63;99809.48;2127622;83;29703;-69
2022/06/25 12:46:10;;;;;;;7.37;4.03;;;;;;;32.43;31.24;99813.98;2127607;83;27695;-70
2022/06/25 12:49:11;;;;;;;4.67;3.22;;;;;;;32.26;31.30;99826.77;2127446;83;28966;-68
2022/06/25 12:52:17;;;;;;;4.65;3.50;;;;;;;32.16;31.36;99818.13;2127362;83;30822;-67
2022/06/25 12:55:26;;;;;;;6.60;3.55;;;;;;;32.15;30.84;99819.20;2127431;83;33602;-67
2022/06/25 12:58:34;;;;;;;7.15;3.10;;;;;;;31.98;30.63;99817.87;2114671;82;29687;-68
2022/06/25 13:01:36;;;;;;;8.45;4.15;;;;;;;31.90;31.17;99820.96;2108388;84;27740;-68
2022/06/25 13:04:37;;;;;;;13.25;3.92;;;;;;;31.91;30.82;99825.95;2121578;83;28697;-68
2022/06/25 13:07:38;;;;;;;3.70;3.40;;;;;;;31.86;30.68;99829.94;2127603;83;31028;-68
2022/06/25 13:10:42;;;;;;;5.85;3.75;;;;;;;31.70;29.98;99829.45;2127499;83;32965;-69
2022/06/25 13:13:44;;;;;;;5.08;3.87;;;;;;;31.58;30.67;99835.39;2127743;83;29643;-71
2022/06/25 13:16:45;;;;;;;4.25;3.65;;;;;;;31.48;31.20;99829.84;2114373;83;27661;-70
2022/06/25 13:19:47;;;;;;;3.17;2.87;;;;;;;31.37;30.70;99834.19;2108726;84;28682;-68
2022/06/25 13:22:49;;;;;;;7.40;3.95;;;;;;;31.31;30.61;99832.86;2108545;84;31019;-68
2022/06/25 13:25:50;;;;;;;5.33;3.50;;;;;;;31.25;31.32;99830.98;2110552;84;32960;-68
2022/06/25 13:28:51;;;;;;;5.35;3.55;;;;;;;31.13;31.01;99830.81;2096983;84;29627;-69
2022/06/25 13:31:52;;;;;;;3.58;3.27;;;;;;;30.99;31.61;99834.23;2112843;84;27770;-69
2022/06/25 13:34:54;;;;;;;9.70;3.45;;;;;;;30.91;31.35;99832.58;2092166;83;28638;-67
2022/06/25 13:37:55;;;;;;;5.47;4.97;;;;;;;30.82;31.79;99822.83;2122326;83;31422;-68
2022/06/25 13:40:56;;;;;;;3.12;2.83;;;;;;;30.80;32.00;99828.59;2121968;83;34242;-68
2022/06/25 13:43:59;;;;;;;6.75;3.05;;;;;;;30.72;31.69;99831.59;2122340;83;29635;-69
2022/06/25 13:47:03;;;;;;;3.92;3.62;;;;;;;30.65;31.91;99828.03;2122393;83;27709;-70
2022/06/25 13:50:06;;;;;;;4.22;3.10;;;;;;;30.50;32.10;99829.14;2121534;83;29929;-68
2022/06/25 13:53:08;;;;;;;5.37;3.60;;;;;;;30.42;32.40;99830.23;2116796;83;31383;-69
2022/06/25 13:56:10;;;;;;;7.10;3.17;;;;;;;30.34;32.38;99835.16;2113724;84;32970;-67
2022/06/25 13:59:11;;;;;;;5.40;2.92;;;;;;;30.27;32.91;99829.11;2113927;84;29629;-67
2022/06/25 14:02:12;;;;;;;7.50;3.87;;;;;;;30.24;33.21;99828.16;2113870;83;27604;-68
2022/06/25 14:05:13;;;;;;;6.83;3.37;;;;;;;30.27;33.55;99824.97;2113473;84;28876;-68
2022/06/25 14:08:17;;;;;;;5.53;3.60;;;;;;;30.31;33.28;99818.45;2113878;84;31887;-69
2022/06/25 14:11:18;;;;;;;6.95;3.08;;;;;;;30.29;33.62;99824.73;2114080;84;34083;-68
2022/06/25 14:14:20;;;;;;;9.45;3.33;;;;;;;30.21;33.62;99818.91;2113495;84;30613;-69
2022/06/25 14:17:23;;;;;;;3.90;2.83;;;;;;;30.16;33.51;99818.19;2113971;84;27694;-68
2022/06/25 14:20:24;;;;;;;2.77;2.58;;;;;;;30.15;33.59;99815.11;2113758;84;29491;-66
2022/06/25 14:23:25;;;;;;;2.77;2.52;;;;;;;30.19;33.48;99818.83;2113840;84;31020;-65
2022/06/25 14:26:26;;;;;;;2.60;2.40;;;;;;;30.20;32.85;99815.00;2113851;84;34196;-67
2022/06/25 14:29:28;;;;;;;7.90;2.80;;;;;;;30.16;32.45;99818.19;2113564;84;30041;-68
2022/06/25 14:32:29;;;;;;;3.85;2.85;;;;;;;30.17;32.31;99819.06;2113777;84;27862;-70
2022/06/25 14:35:31;;;;;;;3.75;2.87;;;;;;;30.25;32.74;99812.44;2113548;83;28653;-69
2022/06/25 14:45:11;;;;;;;3.85;2.67;;;;;;;30.60;32.65;99806.59;2113513;84;30477;-68
2022/06/25 14:48:13;;;;;;;3.72;2.70;;;;;;;30.83;33.09;99807.92;2113907;84;27754;-66
2022/06/25 14:51:14;;;;;;;5.70;3.00;;;;;;;31.00;32.87;99803.56;2114064;83;29824;-68